sensor_id;sensor_type;location;lat;lon;timestamp;P1;durP1;ratioP1;P2;durP2;ratioP2
5876;SDS011;2964;42.144;24.730;2023-07-13T00:02:21;16.38;;;14.77;;
5876;SDS011;2964;42.144;24.730;2023-07-13T00:04:48;15.65;;;13.93;;
5876;SDS011;2964;42.144;24.730;2023-07-13T00:07:15;15.95;;;14.30;;
5876;SDS011;2964;42.144;24.730;2023-07-13T00:09:46;17.65;;;15.27;;
5876;SDS011;2964;42.144;24.730;2023-07-13T00:12:23;18.90;;;14.98;;
5876;SDS011;2964;42.144;24.730;2023-07-13T00:14:51;16.25;;;13.88;;
5876;SDS011;2964;42.144;24.730;2023-07-13T00:17:18;16.13;;;14.45;;
5876;SDS011;2964;42.144;24.730;2023-07-13T00:19:44;16.60;;;15.00;;
5876;SDS011;2964;42.144;24.730;2023-07-13T00:22:11;18.90;;;15.48;;
5876;SDS011;2964;42.144;24.730;2023-07-13T00:24:38;16.92;;;15.18;;
5876;SDS011;2964;42.144;24.730;2023-07-13T00:27:08;18.27;;;14.30;;
5876;SDS011;2964;42.144;24.730;2023-07-13T00:29:35;15.85;;;14.32;;
5876;SDS011;2964;42.144;24.730;2023-07-13T00:32:02;16.08;;;14.32;;
5876;SDS011;2964;42.144;24.730;2023-07-13T00:34:29;16.05;;;14.65;;
5876;SDS011;2964;42.144;24.730;2023-07-13T00:36:55;16.77;;;13.90;;
5876;SDS011;2964;42.144;24.730;2023-07-13T00:39:22;14.73;;;12.95;;
5876;SDS011;2964;42.144;24.730;2023-07-13T00:41:49;15.40;;;13.95;;
5876;SDS011;2964;42.144;24.730;2023-07-13T00:44:18;14.20;;;13.10;;
5876;SDS011;2964;42.144;24.730;2023-07-13T00:46:45;19.17;;;13.77;;
5876;SDS011;2964;42.144;24.730;2023-07-13T00:49:13;15.30;;;13.63;;
5876;SDS011;2964;42.144;24.730;2023-07-13T00:51:51;15.25;;;13.88;;
5876;SDS011;2964;42.144;24.730;2023-07-13T00:54:22;14.95;;;13.40;;
5876;SDS011;2964;42.144;24.730;2023-07-13T00:56:54;14.77;;;13.45;;
5876;SDS011;2964;42.144;24.730;2023-07-13T00:59:25;14.65;;;13.43;;
5876;SDS011;2964;42.144;24.730;2023-07-13T01:01:52;15.57;;;13.60;;
5876;SDS011;2964;42.144;24.730;2023-07-13T01:04:20;17.35;;;13.15;;
5876;SDS011;2964;42.144;24.730;2023-07-13T01:06:49;14.82;;;13.38;;
5876;SDS011;2964;42.144;24.730;2023-07-13T01:09:16;13.73;;;12.73;;
5876;SDS011;2964;42.144;24.730;2023-07-13T01:11:43;15.02;;;13.73;;
5876;SDS011;2964;42.144;24.730;2023-07-13T01:14:10;13.85;;;12.70;;
5876;SDS011;2964;42.144;24.730;2023-07-13T01:16:38;14.13;;;12.82;;
5876;SDS011;2964;42.144;24.730;2023-07-13T01:19:11;14.38;;;13.10;;
5876;SDS011;2964;42.144;24.730;2023-07-13T01:22:02;14.88;;;13.43;;
5876;SDS011;2964;42.144;24.730;2023-07-13T01:24:29;14.13;;;13.05;;
5876;SDS011;2964;42.144;24.730;2023-07-13T01:26:56;13.82;;;12.55;;
5876;SDS011;2964;42.144;24.730;2023-07-13T01:29:23;13.52;;;12.25;;
5876;SDS011;2964;42.144;24.730;2023-07-13T01:31:49;14.05;;;12.75;;
5876;SDS011;2964;42.144;24.730;2023-07-13T01:34:16;13.30;;;11.95;;
5876;SDS011;2964;42.144;24.730;2023-07-13T01:36:42;13.55;;;12.48;;
5876;SDS011;2964;42.144;24.730;2023-07-13T01:39:10;15.23;;;11.30;;
5876;SDS011;2964;42.144;24.730;2023-07-13T01:41:37;13.27;;;12.27;;
5876;SDS011;2964;42.144;24.730;2023-07-13T01:44:04;12.25;;;11.35;;
5876;SDS011;2964;42.144;24.730;2023-07-13T01:46:31;13.38;;;12.07;;
5876;SDS011;2964;42.144;24.730;2023-07-13T01:48:57;13.60;;;12.35;;
5876;SDS011;2964;42.144;24.730;2023-07-13T01:51:24;12.40;;;11.32;;
5876;SDS011;2964;42.144;24.730;2023-07-13T01:53:51;11.98;;;11.18;;
5876;SDS011;2964;42.144;24.730;2023-07-13T01:56:19;23.80;;;11.95;;
5876;SDS011;2964;42.144;24.730;2023-07-13T01:58:46;13.07;;;11.85;;
5876;SDS011;2964;42.144;24.730;2023-07-13T02:01:13;14.32;;;12.95;;
5876;SDS011;2964;42.144;24.730;2023-07-13T02:03:39;13.45;;;12.15;;
5876;SDS011;2964;42.144;24.730;2023-07-13T02:06:06;16.27;;;12.00;;
5876;SDS011;2964;42.144;24.730;2023-07-13T02:08:33;13.13;;;12.13;;
5876;SDS011;2964;42.144;24.730;2023-07-13T02:11:00;13.73;;;12.38;;
5876;SDS011;2964;42.144;24.730;2023-07-13T02:13:30;15.38;;;12.23;;
5876;SDS011;2964;42.144;24.730;2023-07-13T02:15:56;13.90;;;11.93;;
5876;SDS011;2964;42.144;24.730;2023-07-13T02:18:23;13.02;;;11.88;;
5876;SDS011;2964;42.144;24.730;2023-07-13T02:20:50;17.13;;;12.95;;
5876;SDS011;2964;42.144;24.730;2023-07-13T02:23:16;12.60;;;11.18;;
5876;SDS011;2964;42.144;24.730;2023-07-13T02:25:43;13.27;;;12.27;;
5876;SDS011;2964;42.144;24.730;2023-07-13T02:28:10;14.85;;;12.20;;
5876;SDS011;2964;42.144;24.730;2023-07-13T02:30:38;17.95;;;11.95;;
5876;SDS011;2964;42.144;24.730;2023-07-13T02:33:05;13.20;;;11.95;;
5876;SDS011;2964;42.144;24.730;2023-07-13T02:35:32;13.20;;;11.90;;
5876;SDS011;2964;42.144;24.730;2023-07-13T02:37:58;14.15;;;12.77;;
5876;SDS011;2964;42.144;24.730;2023-07-13T02:40:25;13.60;;;12.50;;
5876;SDS011;2964;42.144;24.730;2023-07-13T02:42:52;13.85;;;12.13;;
5876;SDS011;2964;42.144;24.730;2023-07-13T02:45:18;13.88;;;12.73;;
5876;SDS011;2964;42.144;24.730;2023-07-13T02:47:46;14.85;;;13.48;;
5876;SDS011;2964;42.144;24.730;2023-07-13T02:50:13;14.85;;;13.68;;
5876;SDS011;2964;42.144;24.730;2023-07-13T02:52:40;14.90;;;13.70;;
5876;SDS011;2964;42.144;24.730;2023-07-13T02:55:06;14.05;;;12.80;;
5876;SDS011;2964;42.144;24.730;2023-07-13T02:57:33;14.73;;;13.63;;
5876;SDS011;2964;42.144;24.730;2023-07-13T03:00:00;13.55;;;12.55;;
5876;SDS011;2964;42.144;24.730;2023-07-13T03:02:30;13.32;;;12.23;;
5876;SDS011;2964;42.144;24.730;2023-07-13T03:04:58;16.73;;;12.85;;
5876;SDS011;2964;42.144;24.730;2023-07-13T03:07:25;13.63;;;12.52;;
5876;SDS011;2964;42.144;24.730;2023-07-13T03:09:53;16.02;;;14.43;;
5876;SDS011;2964;42.144;24.730;2023-07-13T03:12:20;19.15;;;12.30;;
5876;SDS011;2964;42.144;24.730;2023-07-13T03:14:47;13.88;;;12.70;;
5876;SDS011;2964;42.144;24.730;2023-07-13T03:17:13;16.48;;;12.93;;
5876;SDS011;2964;42.144;24.730;2023-07-13T03:19:40;14.32;;;12.88;;
5876;SDS011;2964;42.144;24.730;2023-07-13T03:22:08;13.90;;;12.30;;
5876;SDS011;2964;42.144;24.730;2023-07-13T03:24:35;15.48;;;12.35;;
5876;SDS011;2964;42.144;24.730;2023-07-13T03:27:03;15.35;;;12.52;;
5876;SDS011;2964;42.144;24.730;2023-07-13T03:29:30;12.95;;;11.82;;
5876;SDS011;2964;42.144;24.730;2023-07-13T03:31:57;15.98;;;11.93;;
5876;SDS011;2964;42.144;24.730;2023-07-13T03:34:24;13.00;;;12.00;;
5876;SDS011;2964;42.144;24.730;2023-07-13T03:36:53;14.23;;;12.70;;
5876;SDS011;2964;42.144;24.730;2023-07-13T03:39:22;13.88;;;12.10;;
5876;SDS011;2964;42.144;24.730;2023-07-13T03:41:49;14.07;;;12.88;;
5876;SDS011;2964;42.144;24.730;2023-07-13T03:44:16;13.70;;;12.43;;
5876;SDS011;2964;42.144;24.730;2023-07-13T03:46:43;13.10;;;11.85;;
5876;SDS011;2964;42.144;24.730;2023-07-13T03:49:10;13.27;;;12.48;;
5876;SDS011;2964;42.144;24.730;2023-07-13T03:51:37;13.57;;;12.43;;
5876;SDS011;2964;42.144;24.730;2023-07-13T03:54:04;13.52;;;12.30;;
5876;SDS011;2964;42.144;24.730;2023-07-13T03:56:32;13.43;;;12.15;;
5876;SDS011;2964;42.144;24.730;2023-07-13T03:58:59;15.48;;;12.82;;
5876;SDS011;2964;42.144;24.730;2023-07-13T04:01:27;15.50;;;12.68;;
5876;SDS011;2964;42.144;24.730;2023-07-13T04:03:54;14.30;;;12.90;;
5876;SDS011;2964;42.144;24.730;2023-07-13T04:06:21;16.15;;;12.75;;
5876;SDS011;2964;42.144;24.730;2023-07-13T04:08:50;13.82;;;12.50;;
5876;SDS011;2964;42.144;24.730;2023-07-13T04:11:19;13.77;;;12.57;;
5876;SDS011;2964;42.144;24.730;2023-07-13T04:13:48;13.95;;;12.65;;
5876;SDS011;2964;42.144;24.730;2023-07-13T04:16:16;13.38;;;12.00;;
5876;SDS011;2964;42.144;24.730;2023-07-13T04:18:44;13.85;;;12.52;;
5876;SDS011;2964;42.144;24.730;2023-07-13T04:21:10;13.98;;;12.85;;
5876;SDS011;2964;42.144;24.730;2023-07-13T04:23:38;13.07;;;11.70;;
5876;SDS011;2964;42.144;24.730;2023-07-13T04:26:05;14.02;;;12.90;;
5876;SDS011;2964;42.144;24.730;2023-07-13T04:28:32;15.65;;;11.80;;
5876;SDS011;2964;42.144;24.730;2023-07-13T04:31:02;12.93;;;11.80;;
5876;SDS011;2964;42.144;24.730;2023-07-13T04:33:29;13.45;;;12.32;;
5876;SDS011;2964;42.144;24.730;2023-07-13T04:35:56;11.75;;;10.85;;
5876;SDS011;2964;42.144;24.730;2023-07-13T04:38:23;12.82;;;11.63;;
5876;SDS011;2964;42.144;24.730;2023-07-13T04:40:53;13.90;;;12.55;;
5876;SDS011;2964;42.144;24.730;2023-07-13T04:43:21;13.13;;;11.88;;
5876;SDS011;2964;42.144;24.730;2023-07-13T04:45:48;18.38;;;12.52;;
5876;SDS011;2964;42.144;24.730;2023-07-13T04:48:16;14.05;;;13.05;;
5876;SDS011;2964;42.144;24.730;2023-07-13T04:50:43;15.00;;;13.68;;
5876;SDS011;2964;42.144;24.730;2023-07-13T04:53:10;14.75;;;13.40;;
5876;SDS011;2964;42.144;24.730;2023-07-13T04:55:36;16.33;;;13.40;;
5876;SDS011;2964;42.144;24.730;2023-07-13T04:58:03;20.38;;;12.95;;
5876;SDS011;2964;42.144;24.730;2023-07-13T05:00:30;15.90;;;14.65;;
5876;SDS011;2964;42.144;24.730;2023-07-13T05:02:58;15.73;;;14.07;;
5876;SDS011;2964;42.144;24.730;2023-07-13T05:05:26;17.02;;;15.35;;
5876;SDS011;2964;42.144;24.730;2023-07-13T05:07:53;21.70;;;15.25;;
5876;SDS011;2964;42.144;24.730;2023-07-13T05:10:20;15.30;;;13.63;;
5876;SDS011;2964;42.144;24.730;2023-07-13T05:12:47;16.48;;;15.05;;
5876;SDS011;2964;42.144;24.730;2023-07-13T05:15:14;15.18;;;13.85;;
5876;SDS011;2964;42.144;24.730;2023-07-13T05:17:41;16.55;;;15.15;;
5876;SDS011;2964;42.144;24.730;2023-07-13T05:20:08;15.85;;;14.35;;
5876;SDS011;2964;42.144;24.730;2023-07-13T05:22:37;18.23;;;15.93;;
5876;SDS011;2964;42.144;24.730;2023-07-13T05:25:04;15.63;;;14.10;;
5876;SDS011;2964;42.144;24.730;2023-07-13T05:27:31;15.18;;;13.73;;
5876;SDS011;2964;42.144;24.730;2023-07-13T05:29:58;20.73;;;12.85;;
5876;SDS011;2964;42.144;24.730;2023-07-13T05:32:25;14.60;;;13.25;;
5876;SDS011;2964;42.144;24.730;2023-07-13T05:34:52;17.10;;;15.65;;
5876;SDS011;2964;42.144;24.730;2023-07-13T05:37:18;15.20;;;13.90;;
5876;SDS011;2964;42.144;24.730;2023-07-13T05:39:46;15.70;;;14.50;;
5876;SDS011;2964;42.144;24.730;2023-07-13T05:42:13;17.60;;;15.82;;
5876;SDS011;2964;42.144;24.730;2023-07-13T05:44:40;19.63;;;14.57;;
5876;SDS011;2964;42.144;24.730;2023-07-13T05:47:07;16.20;;;14.63;;
5876;SDS011;2964;42.144;24.730;2023-07-13T05:49:33;17.08;;;15.23;;
5876;SDS011;2964;42.144;24.730;2023-07-13T05:52:00;15.68;;;14.05;;
5876;SDS011;2964;42.144;24.730;2023-07-13T05:54:27;14.40;;;13.13;;
5876;SDS011;2964;42.144;24.730;2023-07-13T05:56:55;18.52;;;15.05;;
5876;SDS011;2964;42.144;24.730;2023-07-13T05:59:22;15.18;;;13.75;;
5876;SDS011;2964;42.144;24.730;2023-07-13T06:01:48;16.38;;;14.85;;
5876;SDS011;2964;42.144;24.730;2023-07-13T06:04:17;15.15;;;13.75;;
5876;SDS011;2964;42.144;24.730;2023-07-13T06:06:43;14.80;;;13.43;;
5876;SDS011;2964;42.144;24.730;2023-07-13T06:09:10;15.13;;;13.80;;
5876;SDS011;2964;42.144;24.730;2023-07-13T06:11:37;17.70;;;14.77;;
5876;SDS011;2964;42.144;24.730;2023-07-13T06:14:05;14.82;;;13.65;;
5876;SDS011;2964;42.144;24.730;2023-07-13T06:16:31;15.20;;;13.73;;
5876;SDS011;2964;42.144;24.730;2023-07-13T06:18:58;13.88;;;12.57;;
5876;SDS011;2964;42.144;24.730;2023-07-13T06:21:25;17.05;;;14.25;;
5876;SDS011;2964;42.144;24.730;2023-07-13T06:23:51;15.80;;;12.65;;
5876;SDS011;2964;42.144;24.730;2023-07-13T06:26:19;14.07;;;12.75;;
5876;SDS011;2964;42.144;24.730;2023-07-13T06:28:47;14.70;;;13.35;;
5876;SDS011;2964;42.144;24.730;2023-07-13T06:31:15;13.15;;;12.05;;
5876;SDS011;2964;42.144;24.730;2023-07-13T06:33:43;13.30;;;12.35;;
5876;SDS011;2964;42.144;24.730;2023-07-13T06:36:10;15.23;;;13.73;;
5876;SDS011;2964;42.144;24.730;2023-07-13T06:38:37;14.68;;;12.23;;
5876;SDS011;2964;42.144;24.730;2023-07-13T06:41:05;13.05;;;12.05;;
5876;SDS011;2964;42.144;24.730;2023-07-13T06:43:32;13.45;;;12.52;;
5876;SDS011;2964;42.144;24.730;2023-07-13T06:45:59;13.93;;;12.38;;
5876;SDS011;2964;42.144;24.730;2023-07-13T06:48:27;13.13;;;12.20;;
5876;SDS011;2964;42.144;24.730;2023-07-13T06:50:54;13.27;;;12.00;;
5876;SDS011;2964;42.144;24.730;2023-07-13T06:53:22;14.13;;;12.73;;
5876;SDS011;2964;42.144;24.730;2023-07-13T06:55:49;30.65;;;13.05;;
5876;SDS011;2964;42.144;24.730;2023-07-13T06:58:16;15.43;;;13.75;;
5876;SDS011;2964;42.144;24.730;2023-07-13T07:00:44;14.57;;;13.25;;
5876;SDS011;2964;42.144;24.730;2023-07-13T07:03:11;15.43;;;13.93;;
5876;SDS011;2964;42.144;24.730;2023-07-13T07:05:40;13.68;;;12.68;;
5876;SDS011;2964;42.144;24.730;2023-07-13T07:08:06;12.80;;;11.85;;
5876;SDS011;2964;42.144;24.730;2023-07-13T07:10:33;12.75;;;11.77;;
5876;SDS011;2964;42.144;24.730;2023-07-13T07:13:00;14.43;;;13.00;;
5876;SDS011;2964;42.144;24.730;2023-07-13T07:15:28;13.65;;;12.05;;
5876;SDS011;2964;42.144;24.730;2023-07-13T07:17:55;14.77;;;13.27;;
5876;SDS011;2964;42.144;24.730;2023-07-13T07:20:22;14.25;;;12.82;;
5876;SDS011;2964;42.144;24.730;2023-07-13T07:22:50;13.23;;;12.07;;
5876;SDS011;2964;42.144;24.730;2023-07-13T07:25:17;13.70;;;12.65;;
5876;SDS011;2964;42.144;24.730;2023-07-13T07:27:44;14.15;;;13.18;;
5876;SDS011;2964;42.144;24.730;2023-07-13T07:30:11;14.15;;;13.07;;
5876;SDS011;2964;42.144;24.730;2023-07-13T07:32:38;14.45;;;13.15;;
5876;SDS011;2964;42.144;24.730;2023-07-13T07:35:06;14.32;;;13.10;;
5876;SDS011;2964;42.144;24.730;2023-07-13T07:37:33;12.65;;;11.70;;
5876;SDS011;2964;42.144;24.730;2023-07-13T07:40:02;14.18;;;13.02;;
5876;SDS011;2964;42.144;24.730;2023-07-13T07:42:29;13.85;;;12.55;;
5876;SDS011;2964;42.144;24.730;2023-07-13T07:44:55;14.90;;;13.85;;
5876;SDS011;2964;42.144;24.730;2023-07-13T07:47:22;15.38;;;14.18;;
5876;SDS011;2964;42.144;24.730;2023-07-13T07:49:49;13.55;;;12.50;;
5876;SDS011;2964;42.144;24.730;2023-07-13T07:52:16;14.32;;;11.90;;
5876;SDS011;2964;42.144;24.730;2023-07-13T07:54:42;26.73;;;12.77;;
5876;SDS011;2964;42.144;24.730;2023-07-13T07:57:10;12.18;;;11.38;;
5876;SDS011;2964;42.144;24.730;2023-07-13T07:59:37;12.13;;;11.23;;
5876;SDS011;2964;42.144;24.730;2023-07-13T08:02:04;12.90;;;11.50;;
5876;SDS011;2964;42.144;24.730;2023-07-13T08:04:31;13.70;;;12.40;;
5876;SDS011;2964;42.144;24.730;2023-07-13T08:06:58;12.32;;;11.27;;
5876;SDS011;2964;42.144;24.730;2023-07-13T08:09:27;12.30;;;11.38;;
5876;SDS011;2964;42.144;24.730;2023-07-13T08:11:54;11.95;;;10.95;;
5876;SDS011;2964;42.144;24.730;2023-07-13T08:14:22;12.07;;;11.07;;
5876;SDS011;2964;42.144;24.730;2023-07-13T08:16:49;11.90;;;10.90;;
5876;SDS011;2964;42.144;24.730;2023-07-13T08:19:16;11.98;;;10.90;;
5876;SDS011;2964;42.144;24.730;2023-07-13T08:21:43;13.13;;;11.18;;
5876;SDS011;2964;42.144;24.730;2023-07-13T08:24:09;14.98;;;11.70;;
5876;SDS011;2964;42.144;24.730;2023-07-13T08:26:36;13.60;;;11.63;;
5876;SDS011;2964;42.144;24.730;2023-07-13T08:29:03;17.63;;;11.98;;
5876;SDS011;2964;42.144;24.730;2023-07-13T08:31:31;19.17;;;11.25;;
5876;SDS011;2964;42.144;24.730;2023-07-13T08:33:58;14.00;;;11.77;;
5876;SDS011;2964;42.144;24.730;2023-07-13T08:36:25;12.15;;;11.10;;
5876;SDS011;2964;42.144;24.730;2023-07-13T08:38:52;14.25;;;12.98;;
5876;SDS011;2964;42.144;24.730;2023-07-13T08:41:19;13.60;;;10.93;;
5876;SDS011;2964;42.144;24.730;2023-07-13T08:43:47;12.60;;;11.40;;
5876;SDS011;2964;42.144;24.730;2023-07-13T08:46:18;11.48;;;10.18;;
5876;SDS011;2964;42.144;24.730;2023-07-13T08:48:52;12.55;;;11.02;;
5876;SDS011;2964;42.144;24.730;2023-07-13T08:51:28;21.05;;;11.43;;
5876;SDS011;2964;42.144;24.730;2023-07-13T08:54:05;13.73;;;11.32;;
5876;SDS011;2964;42.144;24.730;2023-07-13T08:56:43;17.33;;;12.25;;
5876;SDS011;2964;42.144;24.730;2023-07-13T08:59:13;27.33;;;12.52;;
5876;SDS011;2964;42.144;24.730;2023-07-13T09:04:49;15.57;;;11.43;;
5876;SDS011;2964;42.144;24.730;2023-07-13T09:07:23;14.23;;;12.90;;
5876;SDS011;2964;42.144;24.730;2023-07-13T09:09:59;12.07;;;10.82;;
5876;SDS011;2964;42.144;24.730;2023-07-13T09:12:35;13.20;;;12.07;;
5876;SDS011;2964;42.144;24.730;2023-07-13T09:15:21;13.05;;;11.73;;
5876;SDS011;2964;42.144;24.730;2023-07-13T09:17:51;11.93;;;10.85;;
5876;SDS011;2964;42.144;24.730;2023-07-13T09:20:23;11.00;;;10.20;;
5876;SDS011;2964;42.144;24.730;2023-07-13T09:22:53;9.93;;;8.98;;
5876;SDS011;2964;42.144;24.730;2023-07-13T09:25:23;9.25;;;8.65;;
5876;SDS011;2964;42.144;24.730;2023-07-13T09:27:55;10.63;;;9.70;;
5876;SDS011;2964;42.144;24.730;2023-07-13T09:30:27;8.63;;;7.97;;
5876;SDS011;2964;42.144;24.730;2023-07-13T09:33:06;11.27;;;10.52;;
5876;SDS011;2964;42.144;24.730;2023-07-13T09:35:35;11.43;;;10.48;;
5876;SDS011;2964;42.144;24.730;2023-07-13T09:38:04;10.75;;;9.77;;
5876;SDS011;2964;42.144;24.730;2023-07-13T09:40:40;10.10;;;9.32;;
5876;SDS011;2964;42.144;24.730;2023-07-13T09:43:19;12.35;;;11.00;;
5876;SDS011;2964;42.144;24.730;2023-07-13T09:45:47;12.13;;;11.02;;
5876;SDS011;2964;42.144;24.730;2023-07-13T09:48:15;14.30;;;12.77;;
5876;SDS011;2964;42.144;24.730;2023-07-13T09:50:44;11.60;;;10.52;;
5876;SDS011;2964;42.144;24.730;2023-07-13T09:53:12;11.07;;;10.05;;
5876;SDS011;2964;42.144;24.730;2023-07-13T09:55:40;11.98;;;10.10;;
5876;SDS011;2964;42.144;24.730;2023-07-13T09:58:09;11.35;;;10.48;;
5876;SDS011;2964;42.144;24.730;2023-07-13T10:00:39;11.95;;;10.88;;
5876;SDS011;2964;42.144;24.730;2023-07-13T10:03:14;14.15;;;10.38;;
5876;SDS011;2964;42.144;24.730;2023-07-13T10:05:48;11.60;;;10.65;;
5876;SDS011;2964;42.144;24.730;2023-07-13T10:08:20;13.50;;;11.60;;
5876;SDS011;2964;42.144;24.730;2023-07-13T10:10:54;12.32;;;11.18;;
5876;SDS011;2964;42.144;24.730;2023-07-13T10:13:29;11.77;;;11.02;;
5876;SDS011;2964;42.144;24.730;2023-07-13T10:16:02;13.00;;;11.90;;
5876;SDS011;2964;42.144;24.730;2023-07-13T10:18:31;11.43;;;10.50;;
5876;SDS011;2964;42.144;24.730;2023-07-13T10:21:12;10.32;;;9.52;;
5876;SDS011;2964;42.144;24.730;2023-07-13T10:23:41;11.10;;;10.10;;
5876;SDS011;2964;42.144;24.730;2023-07-13T10:26:12;9.77;;;8.98;;
5876;SDS011;2964;42.144;24.730;2023-07-13T10:28:42;12.90;;;9.95;;
5876;SDS011;2964;42.144;24.730;2023-07-13T10:31:14;9.95;;;9.15;;
5876;SDS011;2964;42.144;24.730;2023-07-13T10:33:42;10.45;;;9.65;;
5876;SDS011;2964;42.144;24.730;2023-07-13T10:36:15;12.35;;;10.63;;
5876;SDS011;2964;42.144;24.730;2023-07-13T10:38:50;12.13;;;10.93;;
5876;SDS011;2964;42.144;24.730;2023-07-13T10:41:20;12.05;;;11.15;;
5876;SDS011;2964;42.144;24.730;2023-07-13T10:43:49;11.85;;;10.82;;
5876;SDS011;2964;42.144;24.730;2023-07-13T10:46:18;11.27;;;10.25;;
5876;SDS011;2964;42.144;24.730;2023-07-13T10:48:48;11.93;;;9.95;;
5876;SDS011;2964;42.144;24.730;2023-07-13T10:51:19;11.45;;;10.10;;
5876;SDS011;2964;42.144;24.730;2023-07-13T10:53:47;10.80;;;9.95;;
5876;SDS011;2964;42.144;24.730;2023-07-13T10:56:36;10.85;;;9.82;;
5876;SDS011;2964;42.144;24.730;2023-07-13T10:59:09;9.88;;;9.27;;
5876;SDS011;2964;42.144;24.730;2023-07-13T11:01:41;12.82;;;10.02;;
5876;SDS011;2964;42.144;24.730;2023-07-13T11:04:16;14.95;;;10.43;;
5876;SDS011;2964;42.144;24.730;2023-07-13T11:06:46;9.65;;;9.07;;
5876;SDS011;2964;42.144;24.730;2023-07-13T11:09:25;9.82;;;8.98;;
5876;SDS011;2964;42.144;24.730;2023-07-13T11:12:00;10.48;;;9.63;;
5876;SDS011;2964;42.144;24.730;2023-07-13T11:14:34;9.93;;;8.90;;
5876;SDS011;2964;42.144;24.730;2023-07-13T11:20:07;10.48;;;9.57;;
5876;SDS011;2964;42.144;24.730;2023-07-13T11:22:43;8.93;;;8.02;;
5876;SDS011;2964;42.144;24.730;2023-07-13T11:28:12;9.95;;;9.07;;
5876;SDS011;2964;42.144;24.730;2023-07-13T11:30:43;9.43;;;8.50;;
5876;SDS011;2964;42.144;24.730;2023-07-13T11:33:19;9.93;;;9.32;;
5876;SDS011;2964;42.144;24.730;2023-07-13T11:35:50;10.35;;;9.32;;
5876;SDS011;2964;42.144;24.730;2023-07-13T11:38:27;11.32;;;8.77;;
5876;SDS011;2964;42.144;24.730;2023-07-13T11:40:56;9.98;;;9.10;;
5876;SDS011;2964;42.144;24.730;2023-07-13T11:43:30;9.35;;;8.55;;
5876;SDS011;2964;42.144;24.730;2023-07-13T11:45:59;10.70;;;9.80;;
5876;SDS011;2964;42.144;24.730;2023-07-13T11:48:37;10.27;;;9.45;;
5876;SDS011;2964;42.144;24.730;2023-07-13T11:51:05;10.65;;;9.27;;
5876;SDS011;2964;42.144;24.730;2023-07-13T11:53:35;9.80;;;8.98;;
5876;SDS011;2964;42.144;24.730;2023-07-13T11:56:05;10.23;;;9.10;;
5876;SDS011;2964;42.144;24.730;2023-07-13T11:58:34;12.55;;;9.65;;
5876;SDS011;2964;42.144;24.730;2023-07-13T12:01:02;10.43;;;9.52;;
5876;SDS011;2964;42.144;24.730;2023-07-13T12:03:30;12.60;;;9.35;;
5876;SDS011;2964;42.144;24.730;2023-07-13T12:06:00;12.38;;;9.70;;
5876;SDS011;2964;42.144;24.730;2023-07-13T12:08:28;10.57;;;9.68;;
5876;SDS011;2964;42.144;24.730;2023-07-13T12:10:56;10.07;;;9.15;;
5876;SDS011;2964;42.144;24.730;2023-07-13T12:13:35;12.38;;;9.88;;
5876;SDS011;2964;42.144;24.730;2023-07-13T12:16:11;10.27;;;9.43;;
5876;SDS011;2964;42.144;24.730;2023-07-13T12:18:41;11.02;;;9.98;;
5876;SDS011;2964;42.144;24.730;2023-07-13T12:21:12;10.48;;;9.40;;
5876;SDS011;2964;42.144;24.730;2023-07-13T12:23:44;14.20;;;8.95;;
5876;SDS011;2964;42.144;24.730;2023-07-13T12:26:14;10.20;;;9.15;;
5876;SDS011;2964;42.144;24.730;2023-07-13T12:28:45;10.35;;;9.43;;
5876;SDS011;2964;42.144;24.730;2023-07-13T12:31:26;10.43;;;9.40;;
5876;SDS011;2964;42.144;24.730;2023-07-13T12:33:58;10.75;;;9.27;;
5876;SDS011;2964;42.144;24.730;2023-07-13T12:36:29;11.40;;;9.95;;
5876;SDS011;2964;42.144;24.730;2023-07-13T12:38:59;11.75;;;10.20;;
5876;SDS011;2964;42.144;24.730;2023-07-13T12:41:31;10.90;;;9.35;;
5876;SDS011;2964;42.144;24.730;2023-07-13T12:44:00;12.40;;;10.55;;
5876;SDS011;2964;42.144;24.730;2023-07-13T12:46:27;10.50;;;9.68;;
5876;SDS011;2964;42.144;24.730;2023-07-13T12:48:54;12.18;;;10.35;;
5876;SDS011;2964;42.144;24.730;2023-07-13T12:51:24;10.05;;;9.05;;
5876;SDS011;2964;42.144;24.730;2023-07-13T12:53:56;14.13;;;10.32;;
5876;SDS011;2964;42.144;24.730;2023-07-13T12:56:26;11.88;;;10.75;;
5876;SDS011;2964;42.144;24.730;2023-07-13T12:58:57;11.77;;;9.00;;
5876;SDS011;2964;42.144;24.730;2023-07-13T13:01:28;12.55;;;9.30;;
5876;SDS011;2964;42.144;24.730;2023-07-13T13:04:00;13.32;;;9.70;;
5876;SDS011;2964;42.144;24.730;2023-07-13T13:06:31;9.73;;;8.77;;
5876;SDS011;2964;42.144;24.730;2023-07-13T13:09:01;10.77;;;9.13;;
5876;SDS011;2964;42.144;24.730;2023-07-13T13:11:29;12.05;;;9.80;;
5876;SDS011;2964;42.144;24.730;2023-07-13T13:13:57;10.73;;;9.55;;
5876;SDS011;2964;42.144;24.730;2023-07-13T13:16:29;10.40;;;9.43;;
5876;SDS011;2964;42.144;24.730;2023-07-13T13:18:59;14.40;;;9.55;;
5876;SDS011;2964;42.144;24.730;2023-07-13T13:21:27;10.35;;;9.10;;
5876;SDS011;2964;42.144;24.730;2023-07-13T13:23:54;10.50;;;9.38;;
5876;SDS011;2964;42.144;24.730;2023-07-13T13:26:21;9.23;;;8.43;;
5876;SDS011;2964;42.144;24.730;2023-07-13T13:28:48;10.70;;;9.65;;
5876;SDS011;2964;42.144;24.730;2023-07-13T13:31:15;8.95;;;8.25;;
5876;SDS011;2964;42.144;24.730;2023-07-13T13:33:45;9.80;;;8.70;;
5876;SDS011;2964;42.144;24.730;2023-07-13T13:36:14;14.55;;;8.10;;
5876;SDS011;2964;42.144;24.730;2023-07-13T13:38:42;13.15;;;8.20;;
5876;SDS011;2964;42.144;24.730;2023-07-13T13:41:09;13.55;;;9.88;;
5876;SDS011;2964;42.144;24.730;2023-07-13T13:43:38;12.35;;;10.23;;
5876;SDS011;2964;42.144;24.730;2023-07-13T13:46:10;11.77;;;9.77;;
5876;SDS011;2964;42.144;24.730;2023-07-13T13:48:41;13.45;;;9.05;;
5876;SDS011;2964;42.144;24.730;2023-07-13T13:51:13;13.52;;;10.60;;
5876;SDS011;2964;42.144;24.730;2023-07-13T13:53:42;13.98;;;10.73;;
5876;SDS011;2964;42.144;24.730;2023-07-13T13:56:09;13.55;;;9.55;;
5876;SDS011;2964;42.144;24.730;2023-07-13T13:58:36;11.82;;;9.48;;
5876;SDS011;2964;42.144;24.730;2023-07-13T14:01:02;16.58;;;11.00;;
5876;SDS011;2964;42.144;24.730;2023-07-13T14:03:33;12.75;;;10.63;;
5876;SDS011;2964;42.144;24.730;2023-07-13T14:06:00;13.55;;;11.18;;
5876;SDS011;2964;42.144;24.730;2023-07-13T14:08:28;11.77;;;10.48;;
5876;SDS011;2964;42.144;24.730;2023-07-13T14:10:55;13.52;;;11.32;;
5876;SDS011;2964;42.144;24.730;2023-07-13T14:13:25;12.25;;;10.70;;
5876;SDS011;2964;42.144;24.730;2023-07-13T14:15:54;18.70;;;10.82;;
5876;SDS011;2964;42.144;24.730;2023-07-13T14:18:21;15.88;;;9.82;;
5876;SDS011;2964;42.144;24.730;2023-07-13T14:20:49;11.57;;;10.35;;
5876;SDS011;2964;42.144;24.730;2023-07-13T14:23:17;13.23;;;11.30;;
5876;SDS011;2964;42.144;24.730;2023-07-13T14:25:45;14.07;;;10.73;;
5876;SDS011;2964;42.144;24.730;2023-07-13T14:28:20;12.63;;;9.43;;
5876;SDS011;2964;42.144;24.730;2023-07-13T14:30:49;14.30;;;9.98;;
5876;SDS011;2964;42.144;24.730;2023-07-13T14:33:16;12.55;;;9.77;;
5876;SDS011;2964;42.144;24.730;2023-07-13T14:35:44;12.10;;;10.25;;
5876;SDS011;2964;42.144;24.730;2023-07-13T14:38:11;11.00;;;10.00;;
5876;SDS011;2964;42.144;24.730;2023-07-13T14:40:40;16.30;;;11.32;;
5876;SDS011;2964;42.144;24.730;2023-07-13T14:43:10;11.20;;;9.88;;
5876;SDS011;2964;42.144;24.730;2023-07-13T14:45:39;12.75;;;10.13;;
5876;SDS011;2964;42.144;24.730;2023-07-13T14:48:12;17.85;;;10.13;;
5876;SDS011;2964;42.144;24.730;2023-07-13T14:50:40;14.20;;;9.95;;
5876;SDS011;2964;42.144;24.730;2023-07-13T14:53:09;12.18;;;9.70;;
5876;SDS011;2964;42.144;24.730;2023-07-13T14:55:36;17.27;;;10.35;;
5876;SDS011;2964;42.144;24.730;2023-07-13T14:58:03;10.50;;;9.52;;